Time;durP1;ratioP1;P1;durP2;ratioP2;P2;SDS_P1;SDS_P2;PMS_P1;PMS_P2;Temp;Humidity;BMP_temperature;BMP_pressure;BME280_temperature;BME280_humidity;BME280_pressure;Samples;Min_cycle;Max_cycle;Signal;HPM_P1;HPM_P2
2022/01/25 00:08:20;;;;;;;4.03;2.10;;;5.10;90.00;;;;;;6276266;22;20015;-77
2022/01/25 00:09:59;;;;;;;5.15;1.98;;;5.10;90.00;;;;;;6303617;22;20010;-76
2022/01/25 00:25:56;;;;;;;3.63;1.98;;;5.10;90.00;;;;;;6305264;22;20045;-75
2022/01/25 00:28:25;;;;;;;4.05;2.00;;;5.10;90.00;;;;;;6305030;22;20015;-74
2022/01/25 00:33:33;;;;;;;3.93;2.00;;;5.10;90.00;;;;;;6305315;22;20007;-75
2022/01/25 00:36:01;;;;;;;3.80;2.00;;;5.10;90.00;;;;;;6301798;22;20299;-75
2022/01/25 00:38:27;;;;;;;3.72;1.98;;;5.10;90.00;;;;;;6275668;22;20030;-76
2022/01/25 00:40:53;;;;;;;4.18;2.20;;;5.10;90.00;;;;;;6302576;22;20005;-75
2022/01/25 00:43:22;;;;;;;4.30;2.00;;;5.10;90.00;;;;;;6305267;22;20543;-75
2022/01/25 00:45:48;;;;;;;3.05;1.75;;;5.10;90.00;;;;;;6302220;22;20006;-75
2022/01/25 00:48:19;;;;;;;4.07;2.03;;;5.10;90.00;;;;;;6275480;22;20011;-76
2022/01/25 00:50:46;;;;;;;4.20;2.10;;;5.10;90.00;;;;;;6301375;22;20011;-75
2022/01/25 00:55:53;;;;;;;4.05;1.83;;;5.00;90.00;;;;;;6305117;22;20011;-76
2022/01/25 00:58:18;;;;;;;4.05;2.13;;;5.00;90.00;;;;;;6301501;22;20007;-76
2022/01/25 01:00:44;;;;;;;4.78;2.50;;;5.00;90.00;;;;;;6301090;22;20078;-76
2022/01/25 01:03:10;;;;;;;3.83;1.92;;;5.00;90.00;;;;;;6304949;22;20012;-76
2022/01/25 01:05:37;;;;;;;5.25;2.30;;;5.10;90.00;;;;;;6298777;22;20078;-77
2022/01/25 01:08:03;;;;;;;4.65;2.20;;;5.10;90.00;;;;;;6276308;22;19995;-76
2022/01/25 01:10:29;;;;;;;4.03;2.10;;;5.00;90.00;;;;;;6302309;22;20343;-77
2022/01/25 01:13:36;;;;;;;3.20;1.75;;;5.00;90.00;;;;;;6305183;22;20007;-77
2022/01/25 01:15:54;;;;;;;3.25;1.73;;;5.00;90.00;;;;;;6304749;22;20015;-75
2022/01/25 01:29:16;;;;;;;3.63;1.60;;;5.00;90.00;;;;;;6304973;22;20024;-76
2022/01/25 01:34:49;;;;;;;3.83;2.05;;;5.00;90.00;;;;;;6302295;22;20017;-77
2022/01/25 01:37:42;;;;;;;4.32;2.10;;;4.90;90.00;;;;;;6302172;22;20019;-76
2022/01/25 01:40:13;;;;;;;3.65;1.75;;;4.90;90.00;;;;;;6304542;22;20014;-76
2022/01/25 01:42:56;;;;;;;3.53;1.90;;;4.90;90.00;;;;;;6279804;22;20427;-76
2022/01/25 01:45:37;;;;;;;4.13;1.90;;;5.00;90.10;;;;;;6304961;22;20000;-76
2022/01/25 01:48:06;;;;;;;4.68;1.90;;;4.90;90.10;;;;;;6304432;22;20072;-75
2022/01/25 01:50:35;;;;;;;4.25;2.00;;;4.90;90.00;;;;;;6302899;22;20008;-75
2022/01/25 01:53:04;;;;;;;3.95;1.90;;;5.00;90.00;;;;;;6304794;22;20001;-75
2022/01/25 01:55:31;;;;;;;4.53;2.17;;;4.90;90.00;;;;;;6304837;22;19995;-75
2022/01/25 01:57:58;;;;;;;3.78;1.92;;;4.80;90.00;;;;;;6301527;22;20116;-75
2022/01/25 02:00:30;;;;;;;3.47;1.63;;;4.80;90.00;;;;;;6305524;22;20048;-75
2022/01/25 02:02:56;;;;;;;4.30;2.03;;;4.90;90.10;;;;;;6305337;22;20327;-75
2022/01/25 02:05:23;;;;;;;4.60;2.03;;;4.90;90.10;;;;;;6306356;22;19999;-75
2022/01/25 02:07:48;;;;;;;4.50;2.15;;;4.90;90.10;;;;;;6305834;22;20006;-75
2022/01/25 02:10:14;;;;;;;3.60;1.80;;;4.90;90.10;;;;;;6303156;22;20008;-75
2022/01/25 02:12:41;;;;;;;3.65;1.65;;;4.80;90.00;;;;;;6302343;22;20006;-75
2022/01/25 02:15:07;;;;;;;3.58;1.90;;;4.90;90.10;;;;;;6304300;22;20537;-75
2022/01/25 02:17:54;;;;;;;4.20;1.98;;;4.80;90.00;;;;;;6303650;22;20038;-75
2022/01/25 02:22:59;;;;;;;4.10;1.90;;;4.90;90.00;;;;;;6303059;22;20014;-75
2022/01/25 02:25:25;;;;;;;4.05;2.20;;;4.80;90.00;;;;;;6306067;22;20082;-75
2022/01/25 02:27:51;;;;;;;4.85;2.50;;;4.80;90.00;;;;;;6304711;22;20038;-75
2022/01/25 02:30:18;;;;;;;4.75;2.38;;;4.80;90.00;;;;;;6277326;22;20090;-75
2022/01/25 02:32:43;;;;;;;4.50;2.20;;;4.80;90.00;;;;;;6306498;22;19999;-75
2022/01/25 02:35:10;;;;;;;4.13;2.10;;;4.90;90.00;;;;;;6306223;22;20428;-75
2022/01/25 02:37:38;;;;;;;3.75;1.95;;;4.80;90.00;;;;;;6303857;22;20478;-75
2022/01/25 02:40:05;;;;;;;4.55;2.00;;;4.80;90.00;;;;;;6303778;22;20086;-75
2022/01/25 02:42:31;;;;;;;4.53;2.17;;;4.70;90.00;;;;;;6306023;22;20003;-75
2022/01/25 02:44:57;;;;;;;4.95;2.20;;;4.80;90.00;;;;;;6301690;22;20435;-75
2022/01/25 02:50:01;;;;;;;4.25;1.92;;;4.70;89.90;;;;;;6302267;22;20015;-75
2022/01/25 02:52:27;;;;;;;4.20;1.92;;;4.70;89.80;;;;;;6301686;22;20308;-75
2022/01/25 02:54:53;;;;;;;4.75;2.33;;;4.70;89.90;;;;;;6305582;22;20503;-75
2022/01/25 02:57:20;;;;;;;5.97;2.75;;;4.70;89.80;;;;;;6306036;22;20022;-75
2022/01/25 02:59:46;;;;;;;4.22;1.90;;;4.70;89.80;;;;;;6302211;22;20077;-75
2022/01/25 03:02:12;;;;;;;5.95;2.40;;;4.70;89.80;;;;;;6301658;22;20453;-75
2022/01/25 03:04:38;;;;;;;5.50;2.20;;;4.70;89.80;;;;;;6306101;22;20007;-74
2022/01/25 03:07:04;;;;;;;5.57;2.67;;;4.70;89.80;;;;;;6303054;22;20056;-75
2022/01/25 03:09:30;;;;;;;5.72;2.67;;;4.70;89.80;;;;;;6301350;22;20007;-75
2022/01/25 03:11:57;;;;;;;4.35;2.25;;;4.70;89.80;;;;;;6305523;22;20068;-75
2022/01/25 03:14:27;;;;;;;4.53;2.30;;;4.70;89.80;;;;;;6305961;22;20014;-75
2022/01/25 03:17:08;;;;;;;4.22;2.20;;;4.70;89.80;;;;;;6303196;22;20003;-75
2022/01/25 03:19:48;;;;;;;3.77;1.97;;;4.70;89.80;;;;;;6305907;22;20019;-75
2022/01/25 03:22:18;;;;;;;3.72;1.95;;;4.70;89.80;;;;;;6278301;22;20015;-75
2022/01/25 03:24:45;;;;;;;3.63;1.70;;;4.60;89.70;;;;;;6301763;22;20038;-74
2022/01/25 03:27:10;;;;;;;4.13;2.00;;;4.60;89.70;;;;;;6276534;22;20000;-75
2022/01/25 03:29:36;;;;;;;3.28;1.70;;;4.70;89.80;;;;;;6302548;22;20027;-75
2022/01/25 03:32:03;;;;;;;4.28;1.83;;;4.60;89.70;;;;;;6301554;22;20086;-75
2022/01/25 03:34:28;;;;;;;4.55;1.98;;;4.60;89.70;;;;;;6302781;22;20086;-75
2022/01/25 03:36:54;;;;;;;3.38;1.85;;;4.50;89.70;;;;;;6305873;22;20031;-75
2022/01/25 03:39:22;;;;;;;6.00;2.10;;;4.60;89.70;;;;;;6306279;22;20082;-75
2022/01/25 03:41:48;;;;;;;3.55;1.80;;;4.60;89.70;;;;;;6305873;22;20423;-75
2022/01/25 03:44:17;;;;;;;5.43;2.53;;;4.60;89.70;;;;;;6305917;22;19996;-75
2022/01/25 03:47:02;;;;;;;4.32;1.88;;;4.60;89.70;;;;;;6303048;22;20007;-75
2022/01/25 03:52:06;;;;;;;4.20;2.00;;;4.60;89.70;;;;;;6305638;22;20382;-75
2022/01/25 03:54:32;;;;;;;2.60;1.52;;;4.60;89.70;;;;;;6304996;22;20335;-75
2022/01/25 03:56:58;;;;;;;3.53;1.67;;;4.60;89.70;;;;;;6303404;22;19995;-75
2022/01/25 03:59:24;;;;;;;3.70;1.70;;;4.60;89.70;;;;;;6305477;22;20056;-75
2022/01/25 04:01:49;;;;;;;5.18;2.40;;;4.60;89.60;;;;;;6305565;22;20023;-75
2022/01/25 04:04:19;;;;;;;5.18;2.40;;;4.60;89.70;;;;;;6303601;22;20481;-75
2022/01/25 04:06:49;;;;;;;4.20;1.55;;;4.60;89.70;;;;;;6305476;22;19996;-74
2022/01/25 04:09:15;;;;;;;5.50;2.25;;;4.60;89.70;;;;;;6303801;22;20026;-75
2022/01/25 04:11:41;;;;;;;3.97;1.92;;;4.50;89.60;;;;;;6305879;22;20423;-74
2022/01/25 04:14:08;;;;;;;4.32;1.98;;;4.60;89.60;;;;;;6305690;22;20004;-75
2022/01/25 04:16:40;;;;;;;4.78;2.00;;;4.60;89.60;;;;;;6305669;22;20102;-74
2022/01/25 04:19:11;;;;;;;4.22;1.80;;;4.60;89.60;;;;;;6301585;22;19995;-75
2022/01/25 04:24:39;;;;;;;4.57;2.00;;;4.60;90.10;;;;;;6303825;22;20007;-75
2022/01/25 04:24:44;;;;;;;3.08;1.40;;;4.60;89.60;;;;;;6301459;22;20561;-75
2022/01/25 04:27:09;;;;;;;3.83;1.70;;;4.60;89.60;;;;;;6304901;22;20041;-75
2022/01/25 04:29:35;;;;;;;3.65;1.83;;;4.50;89.80;;;;;;6303323;22;20021;-75
2022/01/25 04:32:01;;;;;;;4.97;2.20;;;4.50;89.50;;;;;;6275919;22;20395;-75
2022/01/25 04:34:46;;;;;;;4.30;1.98;;;4.60;89.50;;;;;;6306022;22;20003;-74
2022/01/25 04:48:54;;;;;;;5.45;2.47;;;4.60;89.60;;;;;;6251181;22;20463;-75
2022/01/25 04:53:33;;;;;;;4.10;1.60;;;4.50;89.50;;;;;;6305361;22;20015;-75
2022/01/25 04:56:09;;;;;;;2.88;1.35;;;4.50;89.50;;;;;;6298568;22;19999;-74
2022/01/25 04:58:45;;;;;;;3.95;1.90;;;4.50;89.50;;;;;;6303986;22;20007;-74
2022/01/25 05:01:11;;;;;;;3.30;1.52;;;4.50;89.60;;;;;;6303944;22;20056;-75
2022/01/25 05:06:19;;;;;;;5.25;2.17;;;4.50;89.60;;;;;;6302465;22;20090;-75
2022/01/25 05:08:51;;;;;;;5.30;2.15;;;4.50;89.60;;;;;;6301097;22;20492;-75
2022/01/25 05:11:34;;;;;;;4.47;2.10;;;4.50;89.60;;;;;;6306165;22;20086;-75
2022/01/25 05:14:16;;;;;;;3.88;1.90;;;4.40;89.60;;;;;;6279282;22;20082;-74
2022/01/25 05:19:35;;;;;;;3.97;1.83;;;4.50;89.60;;;;;;6297085;22;20012;-76
2022/01/25 05:22:06;;;;;;;3.95;1.98;;;4.40;89.60;;;;;;6303128;22;20019;-74
2022/01/25 05:24:34;;;;;;;4.60;1.92;;;4.40;89.50;;;;;;6277768;22;20074;-75
2022/01/25 05:27:01;;;;;;;4.25;1.88;;;4.40;89.50;;;;;;6305979;22;19999;-75
2022/01/25 05:29:27;;;;;;;4.63;2.13;;;4.40;89.50;;;;;;6301372;22;20011;-75
2022/01/25 05:31:53;;;;;;;4.05;1.80;;;4.40;89.60;;;;;;6306293;22;20331;-75
2022/01/25 05:34:18;;;;;;;4.65;2.10;;;4.40;89.60;;;;;;6301651;22;19999;-75
2022/01/25 05:36:44;;;;;;;4.10;1.92;;;4.40;89.60;;;;;;6306114;22;20389;-75
2022/01/25 05:39:14;;;;;;;4.20;1.90;;;4.40;89.50;;;;;;6305597;22;20027;-75
2022/01/25 05:41:41;;;;;;;4.47;1.98;;;4.40;89.50;;;;;;6306222;22;20087;-74
2022/01/25 05:47:05;;;;;;;5.68;2.10;;;4.50;89.60;;;;;;6302451;22;20014;-75
2022/01/25 05:49:33;;;;;;;4.13;1.98;;;4.40;89.50;;;;;;6300482;22;20078;-75
2022/01/25 05:51:58;;;;;;;4.93;2.20;;;4.50;89.50;;;;;;6277289;22;20015;-75
2022/01/25 05:54:24;;;;;;;4.15;2.10;;;4.40;89.50;;;;;;6276293;22;20006;-75
2022/01/25 05:56:50;;;;;;;4.00;1.88;;;4.40;89.50;;;;;;6257047;22;20008;-75
2022/01/25 05:59:16;;;;;;;3.75;1.83;;;4.40;89.50;;;;;;6305994;22;20331;-74
2022/01/25 06:01:44;;;;;;;4.45;2.05;;;4.40;89.50;;;;;;6302571;22;20049;-75
2022/01/25 06:04:11;;;;;;;5.38;2.50;;;4.40;89.50;;;;;;6305474;22;20078;-74
2022/01/25 06:06:36;;;;;;;4.10;2.05;;;4.40;89.50;;;;;;6305683;22;20011;-75
2022/01/25 06:09:03;;;;;;;3.53;1.73;;;4.40;89.50;;;;;;6305310;22;20315;-74
2022/01/25 06:11:30;;;;;;;4.50;2.20;;;4.40;89.50;;;;;;6305053;22;20007;-74
2022/01/25 06:13:56;;;;;;;4.55;2.40;;;4.30;89.50;;;;;;6304942;22;19999;-74
2022/01/25 06:16:22;;;;;;;5.57;2.53;;;4.40;89.50;;;;;;6302302;22;20045;-74
2022/01/25 06:18:47;;;;;;;6.20;2.60;;;4.40;89.60;;;;;;6308902;22;20006;-75
2022/01/25 06:21:14;;;;;;;5.30;2.38;;;4.40;89.50;;;;;;6314004;22;19999;-74
2022/01/25 06:23:39;;;;;;;4.18;1.83;;;4.40;89.50;;;;;;6320036;22;20021;-74
2022/01/25 06:26:06;;;;;;;4.38;2.20;;;4.30;89.40;;;;;;6319937;22;20050;-74
2022/01/25 06:28:34;;;;;;;5.65;2.42;;;4.30;89.40;;;;;;6315535;22;20955;-74
2022/01/25 06:31:01;;;;;;;4.10;2.00;;;4.30;90.00;;;;;;6306492;22;20403;-74
2022/01/25 06:33:27;;;;;;;4.78;2.60;;;4.40;89.50;;;;;;6319625;22;20014;-74
2022/01/25 06:35:53;;;;;;;5.15;2.42;;;4.30;89.40;;;;;;6316293;22;20000;-74
2022/01/25 06:38:19;;;;;;;4.43;2.15;;;4.40;89.50;;;;;;6315183;22;20029;-76
2022/01/25 06:40:44;;;;;;;5.80;2.47;;;4.50;89.50;;;;;;6315664;22;20078;-74
2022/01/25 06:43:10;;;;;;;5.43;2.38;;;4.30;89.30;;;;;;6319781;22;20023;-74
2022/01/25 06:45:40;;;;;;;5.65;2.50;;;4.30;89.30;;;;;;6316197;22;20098;-74
2022/01/25 06:48:06;;;;;;;4.88;2.53;;;4.30;89.30;;;;;;6318390;22;20010;-75
2022/01/25 06:50:33;;;;;;;4.57;2.15;;;4.30;89.40;;;;;;6318954;22;20042;-74
2022/01/25 06:52:59;;;;;;;3.63;1.80;;;4.30;89.40;;;;;;6320017;22;20007;-74
2022/01/25 06:55:25;;;;;;;4.03;1.95;;;4.30;89.40;;;;;;6319111;22;20003;-74
2022/01/25 06:57:50;;;;;;;5.55;2.60;;;4.30;89.40;;;;;;6321732;22;19999;-74
2022/01/25 07:00:23;;;;;;;4.85;2.25;;;4.30;89.40;;;;;;6320395;22;20004;-75
2022/01/25 07:02:49;;;;;;;4.47;1.98;;;4.40;89.40;;;;;;6294437;22;20003;-75
2022/01/25 07:05:15;;;;;;;4.35;2.05;;;4.30;89.30;;;;;;6319321;22;20014;-75
2022/01/25 07:07:42;;;;;;;5.55;2.50;;;4.30;89.30;;;;;;6320952;22;20304;-75
2022/01/25 07:10:09;;;;;;;5.25;2.17;;;4.30;89.30;;;;;;6319719;22;20379;-75
2022/01/25 07:12:36;;;;;;;7.25;2.88;;;4.30;89.40;;;;;;6324164;22;20000;-75
2022/01/25 07:15:01;;;;;;;5.97;2.60;;;4.30;89.40;;;;;;6324496;22;19996;-74
2022/01/25 07:17:27;;;;;;;5.18;2.30;;;4.30;89.40;;;;;;6322292;22;20014;-75
2022/01/25 07:19:53;;;;;;;4.70;2.10;;;4.30;89.40;;;;;;6324639;22;20011;-75
2022/01/25 07:22:19;;;;;;;7.63;3.05;;;4.30;89.30;;;;;;6325913;22;19999;-75
2022/01/25 07:24:45;;;;;;;7.88;3.25;;;4.30;89.30;;;;;;6315127;22;19999;-75
2022/01/25 07:27:11;;;;;;;8.63;3.65;;;4.30;89.30;;;;;;6323488;22;20003;-76
2022/01/25 07:29:36;;;;;;;8.90;3.70;;;4.30;89.30;;;;;;6307291;22;19999;-76
2022/01/25 07:32:03;;;;;;;5.32;2.55;;;4.30;89.20;;;;;;6302053;22;20011;-76
2022/01/25 07:34:29;;;;;;;7.07;3.15;;;4.30;89.20;;;;;;6302897;22;20019;-77
2022/01/25 07:36:55;;;;;;;6.22;3.00;;;4.30;89.10;;;;;;6305937;22;20296;-76
2022/01/25 07:39:21;;;;;;;6.90;3.00;;;4.20;89.10;;;;;;6306415;22;19999;-76
2022/01/25 07:41:48;;;;;;;7.60;3.00;;;4.30;89.10;;;;;;6305980;22;19999;-75
2022/01/25 07:44:15;;;;;;;5.32;2.58;;;4.40;89.30;;;;;;6302470;22;20015;-76
2022/01/25 07:46:41;;;;;;;6.45;2.95;;;4.30;89.20;;;;;;6306238;22;20052;-76
2022/01/25 07:49:08;;;;;;;5.78;2.33;;;4.30;89.10;;;;;;6306150;22;20011;-76
2022/01/25 07:51:35;;;;;;;5.43;2.75;;;4.30;89.10;;;;;;6306432;22;20010;-76
2022/01/25 07:54:01;;;;;;;6.22;3.13;;;4.40;89.20;;;;;;6296393;22;20113;-76
2022/01/25 07:56:27;;;;;;;7.22;3.50;;;4.30;89.10;;;;;;6337368;22;20006;-76
2022/01/25 07:58:53;;;;;;;5.53;2.50;;;4.30;89.10;;;;;;6281286;22;20006;-76
2022/01/25 08:01:20;;;;;;;7.38;3.15;;;4.30;89.10;;;;;;6324684;22;19999;-75
2022/01/25 08:03:46;;;;;;;6.30;2.92;;;4.30;89.10;;;;;;6351763;22;20014;-75
2022/01/25 08:06:13;;;;;;;6.63;2.97;;;4.30;89.10;;;;;;6316163;22;20419;-73
2022/01/25 08:08:40;;;;;;;6.55;3.03;;;4.30;89.10;;;;;;6339408;22;20087;-74
2022/01/25 08:11:05;;;;;;;5.20;2.80;;;4.30;89.10;;;;;;6310088;22;20083;-73
2022/01/25 08:13:31;;;;;;;5.95;2.75;;;4.40;89.10;;;;;;6308494;22;20007;-73
2022/01/25 08:15:58;;;;;;;5.43;2.90;;;4.40;89.10;;;;;;6307697;22;20018;-73
2022/01/25 08:18:23;;;;;;;5.82;2.65;;;4.30;89.00;;;;;;6306905;22;20121;-73
2022/01/25 08:20:49;;;;;;;5.43;2.53;;;4.40;89.00;;;;;;6338954;22;20052;-75
2022/01/25 08:23:15;;;;;;;5.72;2.45;;;4.30;88.90;;;;;;6326949;22;20071;-75
2022/01/25 08:25:41;;;;;;;4.13;2.05;;;4.30;89.00;;;;;;6300285;22;20062;-76
2022/01/25 08:28:07;;;;;;;4.55;2.03;;;4.30;89.00;;;;;;6301242;22;20019;-75
2022/01/25 08:30:33;;;;;;;4.82;2.17;;;4.30;89.10;;;;;;6327083;22;20074;-74
2022/01/25 08:32:58;;;;;;;6.22;3.08;;;4.40;89.00;;;;;;6352913;22;19991;-74
2022/01/25 08:35:24;;;;;;;7.47;3.30;;;4.30;89.00;;;;;;6354353;22;20020;-74
2022/01/25 08:37:50;;;;;;;6.30;2.88;;;4.40;89.00;;;;;;6328806;22;19995;-75
2022/01/25 08:40:16;;;;;;;7.07;3.10;;;4.40;88.90;;;;;;6324935;22;20023;-74
2022/01/25 08:42:45;;;;;;;6.50;3.17;;;4.40;89.00;;;;;;6324807;22;20008;-74
2022/01/25 08:45:11;;;;;;;6.95;3.00;;;4.40;88.90;;;;;;6328680;22;19998;-74
2022/01/25 08:47:37;;;;;;;7.35;3.42;;;4.40;88.90;;;;;;6355266;22;20087;-75
2022/01/25 08:50:05;;;;;;;7.07;3.33;;;4.40;88.90;;;;;;6326341;22;20015;-75
2022/01/25 08:52:31;;;;;;;7.43;3.55;;;4.40;88.90;;;;;;6329836;22;20058;-75
2022/01/25 08:54:57;;;;;;;6.18;2.97;;;4.40;88.90;;;;;;6357150;22;19995;-74
2022/01/25 08:57:23;;;;;;;5.88;2.70;;;4.40;89.60;;;;;;6329415;22;19978;-74
2022/01/25 08:59:49;;;;;;;7.60;3.47;;;4.40;89.00;;;;;;6351645;22;20003;-74
2022/01/25 09:02:16;;;;;;;6.28;2.83;;;4.40;88.90;;;;;;6323238;22;20078;-75
2022/01/25 09:04:44;;;;;;;7.05;2.90;;;4.40;88.90;;;;;;6318148;22;20006;-73
2022/01/25 09:07:10;;;;;;;4.68;2.33;;;4.40;88.90;;;;;;6290236;22;20003;-74
2022/01/25 09:09:36;;;;;;;4.72;2.25;;;4.40;88.80;;;;;;6311398;22;20046;-73
2022/01/25 09:12:02;;;;;;;5.88;2.72;;;4.40;88.80;;;;;;6292359;22;20100;-74
2022/01/25 09:14:28;;;;;;;6.60;2.85;;;4.40;88.80;;;;;;6314263;22;19995;-74
2022/01/25 09:16:54;;;;;;;5.82;2.92;;;4.40;88.90;;;;;;6285386;22;19999;-73
2022/01/25 09:19:20;;;;;;;7.32;3.60;;;4.50;88.80;;;;;;6283407;22;20087;-74
2022/01/25 09:21:45;;;;;;;6.68;3.25;;;4.40;88.80;;;;;;6307335;22;20465;-73
2022/01/25 09:24:11;;;;;;;6.65;3.38;;;4.40;88.80;;;;;;6337617;22;20013;-73
2022/01/25 09:26:37;;;;;;;5.93;2.75;;;4.40;88.80;;;;;;6338189;22;20025;-74
2022/01/25 09:29:04;;;;;;;5.95;2.90;;;4.50;88.90;;;;;;6337170;22;20472;-74
2022/01/25 09:31:31;;;;;;;6.70;2.88;;;4.60;89.40;;;;;;6336436;22;20018;-74
2022/01/25 09:33:57;;;;;;;5.97;2.90;;;4.60;88.70;;;;;;6308434;22;19996;-74
2022/01/25 09:36:26;;;;;;;7.75;3.85;;;4.50;88.60;;;;;;6336767;22;20369;-74
2022/01/25 09:38:54;;;;;;;6.18;2.72;;;4.60;88.70;;;;;;6306705;22;20000;-75
2022/01/25 09:41:20;;;;;;;4.78;2.40;;;4.50;88.60;;;;;;6336727;22;20090;-74
2022/01/25 09:43:46;;;;;;;7.00;3.30;;;4.50;88.60;;;;;;6336978;22;19999;-74
2022/01/25 09:46:12;;;;;;;6.88;3.03;;;4.60;88.60;;;;;;6336771;22;20014;-74
2022/01/25 09:48:37;;;;;;;6.50;2.85;;;4.60;88.60;;;;;;6333250;22;20003;-74
2022/01/25 09:51:06;;;;;;;7.63;3.40;;;4.50;88.50;;;;;;6254230;22;20327;-72
2022/01/25 09:53:33;;;;;;;6.65;2.85;;;4.60;88.60;;;;;;6308714;22;20003;-73
2022/01/25 09:55:59;;;;;;;6.32;3.00;;;4.60;88.60;;;;;;6308637;22;19992;-73
2022/01/25 09:58:25;;;;;;;6.10;3.13;;;4.60;89.10;;;;;;6336764;22;20023;-72
2022/01/25 10:00:56;;;;;;;6.70;2.90;;;4.60;88.50;;;;;;6307469;22;20457;-73
2022/01/25 10:03:32;;;;;;;7.15;3.33;;;4.60;88.60;;;;;;6258486;22;19999;-73
2022/01/25 10:06:01;;;;;;;5.97;2.72;;;4.60;88.50;;;;;;6310405;22;20082;-73
2022/01/25 10:08:31;;;;;;;5.80;2.70;;;4.70;88.50;;;;;;6336279;22;20006;-74
2022/01/25 10:10:59;;;;;;;5.88;2.83;;;4.70;88.50;;;;;;6309771;22;20334;-73
2022/01/25 10:13:30;;;;;;;5.97;2.78;;;4.70;88.50;;;;;;6338011;22;19999;-73
2022/01/25 10:16:03;;;;;;;5.43;2.35;;;4.70;88.50;;;;;;6306553;22;20025;-73
2022/01/25 10:18:44;;;;;;;5.00;2.60;;;4.70;88.50;;;;;;6336517;22;19999;-73
2022/01/25 10:21:30;;;;;;;5.13;2.42;;;4.70;88.50;;;;;;6337732;22;20038;-74
2022/01/25 10:24:12;;;;;;;5.18;2.47;;;4.70;88.50;;;;;;6307562;22;20303;-73
2022/01/25 10:26:42;;;;;;;6.82;3.28;;;4.70;88.40;;;;;;6310006;22;20322;-73
2022/01/25 10:29:10;;;;;;;6.93;3.25;;;4.70;88.40;;;;;;6337492;22;20327;-73
2022/01/25 10:31:39;;;;;;;8.32;3.40;;;4.70;88.40;;;;;;6309350;22;20381;-73
2022/01/25 10:34:07;;;;;;;6.15;2.70;;;4.70;88.40;;;;;;6337127;22;20426;-74
2022/01/25 10:36:35;;;;;;;5.68;2.50;;;4.70;88.50;;;;;;6307933;22;21331;-74
2022/01/25 10:39:01;;;;;;;6.90;3.10;;;4.70;88.50;;;;;;6339350;22;20010;-74
2022/01/25 10:41:28;;;;;;;8.38;3.95;;;4.70;88.50;;;;;;6310029;22;20344;-74
2022/01/25 10:43:57;;;;;;;7.38;3.70;;;4.80;88.50;;;;;;6308654;22;20006;-74
2022/01/25 10:46:31;;;;;;;6.60;3.00;;;4.80;88.50;;;;;;6308310;22;20027;-75
2022/01/25 10:49:00;;;;;;;6.28;2.92;;;4.80;88.50;;;;;;6257689;22;19999;-74
2022/01/25 10:51:28;;;;;;;7.20;3.15;;;4.80;88.50;;;;;;6309920;22;20110;-73
2022/01/25 10:54:15;;;;;;;7.07;3.28;;;4.80;88.50;;;;;;6338875;22;20026;-73
2022/01/25 10:57:01;;;;;;;4.88;2.28;;;4.80;88.50;;;;;;6312496;22;20074;-74
2022/01/25 10:59:29;;;;;;;9.55;3.38;;;4.90;88.40;;;;;;6257655;22;20454;-74
2022/01/25 11:02:00;;;;;;;5.85;2.65;;;4.90;88.40;;;;;;6309261;22;20009;-74
2022/01/25 11:04:31;;;;;;;5.88;2.65;;;4.80;88.30;;;;;;6308469;22;20046;-74
2022/01/25 11:07:06;;;;;;;5.95;2.50;;;4.80;88.30;;;;;;6337189;22;20003;-73
2022/01/25 11:09:37;;;;;;;7.60;3.30;;;4.80;88.40;;;;;;6312468;22;20884;-73
2022/01/25 11:12:09;;;;;;;5.93;2.63;;;4.80;88.40;;;;;;6306144;22;20022;-72
2022/01/25 11:14:50;;;;;;;4.47;1.90;;;4.80;88.40;;;;;;6278496;22;20000;-72
2022/01/25 11:17:18;;;;;;;5.68;2.80;;;4.80;88.30;;;;;;6306459;22;20438;-72
2022/01/25 11:19:44;;;;;;;6.45;2.80;;;4.90;88.50;;;;;;6307345;22;19999;-72
2022/01/25 11:22:12;;;;;;;6.78;3.10;;;4.80;88.40;;;;;;6306164;22;20067;-73
2022/01/25 11:24:39;;;;;;;6.03;2.83;;;4.80;88.40;;;;;;6306072;22;19999;-73
2022/01/25 11:27:07;;;;;;;6.70;2.60;;;4.80;88.40;;;;;;6307915;22;20003;-73
2022/01/25 11:29:35;;;;;;;4.85;2.38;;;4.80;88.40;;;;;;6280513;22;20022;-73
2022/01/25 11:32:06;;;;;;;4.90;2.38;;;4.80;88.40;;;;;;6306587;22;20015;-73
2022/01/25 11:34:35;;;;;;;6.43;2.88;;;4.90;88.50;;;;;;6279747;22;20437;-74
2022/01/25 11:37:04;;;;;;;5.30;2.53;;;4.80;88.40;;;;;;6281095;22;20428;-74
2022/01/25 11:39:31;;;;;;;6.95;2.95;;;4.90;88.50;;;;;;6284186;22;20003;-74
2022/01/25 11:42:18;;;;;;;6.13;2.60;;;4.90;88.40;;;;;;6309557;22;20006;-74
2022/01/25 11:44:55;;;;;;;7.63;3.22;;;4.90;88.30;;;;;;6310149;22;20013;-74
2022/01/25 11:47:29;;;;;;;4.43;2.42;;;4.90;88.40;;;;;;6280966;22;20011;-71
2022/01/25 11:49:58;;;;;;;8.32;3.60;;;5.00;88.40;;;;;;6279957;22;20007;-72
2022/01/25 11:52:26;;;;;;;7.20;3.03;;;4.90;88.40;;;;;;6305975;22;19995;-72
2022/01/25 11:54:55;;;;;;;8.02;3.53;;;4.90;88.30;;;;;;6305859;22;20435;-72
2022/01/25 11:57:24;;;;;;;6.93;3.03;;;4.90;88.20;;;;;;6305870;22;20041;-72
2022/01/25 11:59:57;;;;;;;7.07;3.40;;;4.90;88.30;;;;;;6306014;22;20075;-73
2022/01/25 12:02:44;;;;;;;7.03;3.00;;;4.80;88.20;;;;;;6277796;22;20007;-72
2022/01/25 12:05:14;;;;;;;5.55;2.78;;;4.90;88.30;;;;;;6276764;22;20003;-72
2022/01/25 12:08:06;;;;;;;6.15;2.95;;;4.90;88.40;;;;;;6306560;22;19999;-73
2022/01/25 12:10:38;;;;;;;5.75;2.70;;;4.80;88.30;;;;;;6281140;22;20007;-73
2022/01/25 12:13:28;;;;;;;7.15;3.08;;;4.90;88.30;;;;;;6278611;22;20049;-73
2022/01/25 12:16:28;;;;;;;6.72;2.88;;;4.90;88.40;;;;;;6307170;22;20062;-73
2022/01/25 12:18:58;;;;;;;5.45;2.63;;;4.80;88.40;;;;;;6308155;22;20003;-73
2022/01/25 12:21:55;;;;;;;6.70;2.60;;;4.90;88.40;;;;;;6279083;22;20011;-73
2022/01/25 12:24:29;;;;;;;5.90;2.60;;;4.90;88.30;;;;;;6275503;22;20012;-73
2022/01/25 12:27:04;;;;;;;6.28;3.10;;;4.90;88.30;;;;;;6306562;22;20064;-74
2022/01/25 12:29:34;;;;;;;6.28;2.75;;;4.90;88.30;;;;;;6278971;22;20056;-73
2022/01/25 12:32:19;;;;;;;6.47;2.80;;;4.90;88.20;;;;;;6278513;22;20011;-73
2022/01/25 12:35:04;;;;;;;5.40;2.85;;;4.90;88.20;;;;;;6306137;22;20006;-73
2022/01/25 12:37:55;;;;;;;5.95;2.78;;;4.90;88.20;;;;;;6278285;22;20000;-73
2022/01/25 12:40:32;;;;;;;6.30;2.58;;;4.90;88.20;;;;;;6279783;22;20090;-73
2022/01/25 12:43:07;;;;;;;5.85;2.70;;;4.80;88.20;;;;;;6306436;22;19999;-73
2022/01/25 12:45:40;;;;;;;6.00;2.70;;;4.90;88.30;;;;;;6288607;22;20010;-74
2022/01/25 12:48:11;;;;;;;6.30;2.70;;;4.90;88.30;;;;;;6285203;22;20038;-73
2022/01/25 12:50:40;;;;;;;5.85;2.72;;;4.90;88.30;;;;;;6306733;22;20011;-73
2022/01/25 12:53:08;;;;;;;6.90;3.33;;;4.90;88.30;;;;;;6308551;22;20011;-74
2022/01/25 12:55:39;;;;;;;7.13;3.10;;;4.90;88.20;;;;;;6277722;22;20008;-75
2022/01/25 12:58:05;;;;;;;6.18;2.83;;;4.90;88.20;;;;;;6305898;22;20049;-77
2022/01/25 13:00:38;;;;;;;5.93;2.75;;;5.00;88.20;;;;;;6278154;22;20430;-75
2022/01/25 13:03:37;;;;;;;6.70;2.88;;;4.90;88.20;;;;;;6305775;22;20064;-72
2022/01/25 13:06:11;;;;;;;5.72;2.50;;;5.00;88.20;;;;;;6278206;22;20012;-73
2022/01/25 13:08:50;;;;;;;4.57;2.33;;;4.90;88.20;;;;;;6305520;22;20004;-73
2022/01/25 13:11:30;;;;;;;5.28;2.42;;;5.00;88.30;;;;;;6277150;22;20018;-73
2022/01/25 13:14:04;;;;;;;6.43;2.83;;;4.90;88.20;;;;;;6254242;22;20011;-73
2022/01/25 13:16:51;;;;;;;6.13;2.80;;;4.90;88.20;;;;;;6306188;22;19995;-73
2022/01/25 13:19:23;;;;;;;4.72;2.15;;;4.90;88.20;;;;;;6305652;22;20056;-73
2022/01/25 13:21:51;;;;;;;;;;;4.90;88.30;;;;;;6279056;22;20094;-72
2022/01/25 13:24:19;;;;;;;6.70;3.10;;;4.90;88.30;;;;;;6279751;22;19899;-73
2022/01/25 13:26:50;;;;;;;5.93;2.60;;;4.90;88.20;;;;;;6282811;22;20316;-75
2022/01/25 13:32:11;;;;;;;6.28;2.53;;;5.00;88.20;;;;;;6288915;22;20080;-74
2022/01/25 13:34:37;;;;;;;6.47;3.00;;;5.00;88.20;;;;;;6298323;22;20015;-74
2022/01/25 13:37:03;;;;;;;6.50;2.45;;;5.00;88.20;;;;;;6292811;22;19999;-75
2022/01/25 13:39:30;;;;;;;7.82;3.15;;;4.90;88.10;;;;;;6252186;22;20000;-75
2022/01/25 13:42:11;;;;;;;4.78;2.42;;;4.90;88.10;;;;;;6305032;22;20331;-76
2022/01/25 13:47:18;;;;;;;3.88;1.80;;;4.90;88.30;;;;;;6305000;22;19899;-75
2022/01/25 13:49:44;;;;;;;5.95;2.13;;;4.80;88.30;;;;;;6304738;22;19999;-75
2022/01/25 13:52:09;;;;;;;5.43;2.58;;;4.80;88.40;;;;;;6304651;22;20079;-74
2022/01/25 13:54:35;;;;;;;9.73;3.42;;;4.80;88.40;;;;;;6304998;22;20003;-75
2022/01/25 13:57:10;;;;;;;5.90;2.92;;;4.80;88.40;;;;;;6277703;22;20053;-73
2022/01/25 13:59:36;;;;;;;7.90;3.53;;;4.80;88.40;;;;;;6253168;22;20427;-74
2022/01/25 14:02:03;;;;;;;6.50;2.90;;;4.80;88.30;;;;;;6306213;22;20338;-74
2022/01/25 14:04:33;;;;;;;7.00;3.03;;;4.90;88.30;;;;;;6279852;22;20006;-74
2022/01/25 14:07:01;;;;;;;6.07;3.00;;;4.90;88.20;;;;;;6306186;22;20000;-74
2022/01/25 14:09:33;;;;;;;6.07;2.67;;;4.90;88.20;;;;;;6306383;22;20003;-74
2022/01/25 14:21:39;;;;;;;5.50;2.78;;;4.90;88.20;;;;;;6306702;22;20035;-75
2022/01/25 14:23:07;;;;;;;7.40;3.00;;;4.80;88.10;;;;;;6281092;22;20011;-75
2022/01/25 14:25:37;;;;;;;7.03;2.95;;;4.80;88.10;;;;;;6306209;22;20000;-75
2022/01/25 14:28:13;;;;;;;6.10;2.83;;;4.80;88.20;;;;;;6306177;22;19995;-76
2022/01/25 14:30:42;;;;;;;5.40;2.47;;;4.80;88.20;;;;;;6306325;22;20014;-76
2022/01/25 14:33:11;;;;;;;6.72;2.78;;;4.70;88.20;;;;;;6278800;22;20465;-76